createdAt,value
2023-03-01T00:01:27.825Z,6.20
2023-03-01T00:03:57.014Z,6.10
2023-03-01T00:06:25.891Z,6.10
2023-03-01T00:08:54.168Z,6.10
2023-03-01T00:11:24.955Z,6.10
2023-03-01T00:13:55.220Z,6.10
2023-03-01T00:16:27.667Z,6.10
2023-03-01T00:18:56.290Z,6.00
2023-03-01T00:21:25.307Z,6.00
2023-03-01T00:23:53.581Z,6.00
2023-03-01T00:26:23.335Z,6.00
2023-03-01T00:28:52.051Z,6.00
2023-03-01T00:31:22.218Z,6.00
2023-03-01T00:33:58.443Z,5.90
2023-03-01T00:36:29.359Z,5.90
2023-03-01T00:38:58.306Z,5.90
2023-03-01T00:41:27.682Z,5.90
2023-03-01T00:43:56.848Z,5.90
2023-03-01T00:46:27.839Z,5.80
2023-03-01T00:48:57.552Z,5.90
2023-03-01T00:51:28.606Z,5.80
2023-03-01T00:53:59.078Z,5.80
2023-03-01T00:56:27.858Z,5.80
2023-03-01T00:58:56.180Z,5.70
2023-03-01T01:01:28.522Z,5.70
2023-03-01T01:03:59.949Z,5.70
2023-03-01T01:06:30.824Z,5.70
2023-03-01T01:08:59.779Z,5.60
2023-03-01T01:11:30.060Z,5.60
2023-03-01T01:13:59.016Z,5.50
2023-03-01T01:16:29.248Z,5.50
2023-03-01T01:18:59.757Z,5.50
2023-03-01T01:21:28.398Z,5.50
2023-03-01T01:23:57.677Z,5.50
2023-03-01T01:26:28.059Z,5.50
2023-03-01T01:28:56.800Z,5.50
2023-03-01T01:31:25.702Z,5.50
2023-03-01T01:33:54.763Z,5.50
2023-03-01T01:36:24.698Z,5.40
2023-03-01T01:38:52.931Z,5.40
2023-03-01T01:41:22.869Z,5.40
2023-03-01T01:44:11.902Z,5.40
2023-03-01T01:46:42.965Z,5.40
2023-03-01T01:49:21.126Z,5.40
2023-03-01T01:51:53.730Z,5.40
2023-03-01T01:54:26.962Z,5.40
2023-03-01T01:57:00.041Z,5.40
2023-03-01T01:59:33.304Z,5.40
2023-03-01T02:02:03.902Z,5.40
2023-03-01T02:04:32.763Z,5.40
2023-03-01T02:07:07.190Z,5.40
2023-03-01T02:09:36.510Z,5.30
2023-03-01T02:12:06.209Z,5.30
2023-03-01T02:14:34.794Z,5.30
2023-03-01T02:17:02.999Z,5.30
2023-03-01T02:19:43.004Z,5.30
2023-03-01T02:22:21.183Z,5.30
2023-03-01T02:24:59.796Z,5.20
2023-03-01T02:27:37.620Z,5.20
2023-03-01T02:30:08.936Z,5.20
2023-03-01T02:32:36.350Z,5.20
2023-03-01T02:35:07.528Z,5.20
2023-03-01T02:37:38.289Z,5.20
2023-03-01T02:40:12.680Z,5.20
2023-03-01T02:42:47.799Z,5.20
2023-03-01T02:45:17.583Z,5.10
2023-03-01T02:47:45.803Z,5.10
2023-03-01T02:50:26.263Z,5.10
2023-03-01T02:53:02.703Z,5.10
2023-03-01T02:55:30.886Z,5.10
2023-03-01T02:57:59.593Z,5.10
2023-03-01T03:00:34.235Z,5.10
2023-03-01T03:03:02.467Z,5.10
2023-03-01T03:05:33.380Z,5.10
2023-03-01T03:08:03.464Z,5.10
2023-03-01T03:10:34.177Z,5.10
2023-03-01T03:13:04.598Z,5.10
2023-03-01T03:15:37.060Z,5.10
2023-03-01T03:18:07.188Z,5.10
2023-03-01T03:20:35.565Z,5.10
2023-03-01T03:23:03.752Z,5.10
2023-03-01T03:25:32.422Z,5.10
2023-03-01T03:28:00.824Z,5.10
2023-03-01T03:30:31.716Z,5.10
2023-03-01T03:33:02.089Z,5.10
2023-03-01T03:35:32.299Z,5.00
2023-03-01T03:38:04.889Z,5.00
2023-03-01T03:40:35.800Z,5.00
2023-03-01T03:43:04.252Z,5.00
2023-03-01T03:45:34.380Z,5.00
2023-03-01T03:48:05.899Z,5.00
2023-03-01T03:50:34.637Z,5.00
2023-03-01T03:53:04.405Z,5.00
2023-03-01T03:55:34.875Z,5.00
2023-03-01T03:58:07.904Z,5.00
2023-03-01T04:00:38.900Z,5.00
2023-03-01T04:03:09.043Z,5.00
2023-03-01T04:05:38.066Z,5.00
2023-03-01T04:08:08.365Z,5.00
2023-03-01T04:10:39.311Z,5.00
2023-03-01T04:13:08.995Z,5.00
2023-03-01T04:15:37.654Z,5.00
2023-03-01T04:18:06.258Z,5.00
2023-03-01T04:20:38.020Z,5.00
2023-03-01T04:23:14.284Z,5.00
2023-03-01T04:25:44.110Z,5.00
2023-03-01T04:28:12.851Z,5.00
2023-03-01T04:30:42.446Z,5.00
2023-03-01T04:33:11.935Z,5.00
2023-03-01T04:35:42.124Z,5.00
2023-03-01T04:38:11.045Z,5.10
2023-03-01T04:40:39.704Z,5.10
2023-03-01T04:43:07.807Z,5.10
2023-03-01T04:45:36.849Z,5.10
2023-03-01T04:48:05.857Z,5.10
2023-03-01T04:50:34.210Z,5.10
2023-03-01T04:53:04.043Z,5.10
2023-03-01T04:55:32.628Z,5.10
2023-03-01T04:58:00.975Z,5.10
2023-03-01T05:00:29.319Z,5.10
2023-03-01T05:03:00.413Z,5.10
2023-03-01T05:05:32.347Z,5.10
2023-03-01T05:08:04.275Z,5.20
2023-03-01T05:10:33.820Z,5.20
2023-03-01T05:13:02.272Z,5.20
2023-03-01T05:15:32.504Z,5.20
2023-03-01T05:18:01.953Z,5.20
2023-03-01T05:20:31.612Z,5.20
2023-03-01T05:23:01.273Z,5.30
2023-03-01T05:25:34.169Z,5.30
2023-03-01T05:28:05.416Z,5.30
2023-03-01T05:30:34.826Z,5.30
2023-03-01T05:33:03.778Z,5.30
2023-03-01T05:35:33.808Z,5.30
2023-03-01T05:38:02.298Z,5.30
2023-03-01T05:40:31.910Z,5.40
2023-03-01T05:43:00.040Z,5.40
2023-03-01T05:45:29.275Z,5.40
2023-03-01T05:47:57.570Z,5.40
2023-03-01T05:50:27.613Z,5.50
2023-03-01T05:53:02.117Z,5.40
2023-03-01T05:55:32.596Z,5.50
2023-03-01T05:58:01.947Z,5.50
2023-03-01T06:00:31.101Z,5.50
2023-03-01T06:03:00.326Z,5.50
2023-03-01T06:05:30.253Z,5.50
2023-03-01T06:08:01.460Z,5.60
2023-03-01T06:10:31.409Z,5.50
2023-03-01T06:13:00.003Z,5.50
2023-03-01T06:15:28.621Z,5.60
2023-03-01T06:18:00.090Z,5.50
2023-03-01T06:20:30.791Z,5.60
2023-03-01T06:22:59.395Z,5.60
2023-03-01T06:25:28.617Z,5.60
2023-03-01T06:27:58.644Z,5.70
2023-03-01T06:30:28.245Z,5.70
2023-03-01T06:33:01.742Z,5.70
2023-03-01T06:35:31.869Z,5.70
2023-03-01T06:38:01.978Z,5.70
2023-03-01T06:40:32.210Z,5.70
2023-03-01T06:43:01.920Z,5.70
2023-03-01T06:45:30.128Z,5.80
2023-03-01T06:48:05.519Z,5.80
2023-03-01T06:50:34.086Z,5.80
2023-03-01T06:53:02.667Z,5.80
2023-03-01T06:55:30.947Z,5.80
2023-03-01T06:58:01.806Z,5.80
2023-03-01T07:00:30.612Z,5.80
2023-03-01T07:03:03.569Z,5.90
2023-03-01T07:05:32.161Z,5.90
2023-03-01T07:08:00.309Z,5.90
2023-03-01T07:10:28.481Z,5.90
2023-03-01T07:13:01.814Z,6.00
2023-03-01T07:15:30.325Z,6.00
2023-03-01T07:17:59.119Z,6.00
2023-03-01T07:20:27.273Z,6.00
2023-03-01T07:22:56.066Z,6.00
2023-03-01T07:25:24.616Z,6.10
2023-03-01T07:27:53.952Z,6.10
2023-03-01T07:30:26.844Z,6.10
2023-03-01T07:32:55.994Z,6.20
2023-03-01T07:35:24.615Z,6.20
2023-03-01T07:37:53.018Z,6.20
2023-03-01T07:40:22.020Z,6.20
2023-03-01T07:42:50.209Z,6.30
2023-03-01T07:45:18.451Z,6.30
2023-03-01T07:47:48.204Z,6.30
2023-03-01T07:50:16.593Z,6.30
2023-03-01T07:52:47.004Z,6.30
2023-03-01T07:55:15.433Z,6.30
2023-03-01T07:57:43.700Z,6.40
2023-03-01T08:00:13.942Z,6.40
2023-03-01T08:02:43.059Z,6.50
2023-03-01T08:05:12.963Z,6.50
2023-03-01T08:07:41.143Z,6.50
2023-03-01T08:10:10.481Z,6.50
2023-03-01T08:12:38.713Z,6.60
2023-03-01T08:15:07.965Z,6.60
2023-03-01T08:17:36.251Z,6.60
2023-03-01T08:20:07.197Z,6.60
2023-03-01T08:22:36.818Z,6.70
2023-03-01T08:25:05.326Z,6.70
2023-03-01T08:27:33.493Z,6.70
2023-03-01T08:30:01.798Z,6.80
2023-03-01T08:32:30.114Z,6.80
2023-03-01T08:34:58.528Z,6.80
2023-03-01T08:37:27.248Z,6.90
2023-03-01T08:39:57.159Z,6.90
2023-03-01T08:42:25.408Z,7.00
2023-03-01T08:44:53.612Z,7.00
2023-03-01T08:47:21.921Z,7.00
2023-03-01T08:49:51.838Z,7.10
2023-03-01T08:52:20.436Z,7.10
2023-03-01T08:54:50.055Z,7.00
2023-03-01T08:57:20.053Z,7.10
2023-03-01T08:59:48.229Z,7.10
2023-03-01T09:02:18.248Z,7.20
2023-03-01T09:04:46.716Z,7.20
2023-03-01T09:07:14.923Z,7.20
2023-03-01T09:09:43.083Z,7.20
2023-03-01T09:12:11.375Z,7.20
2023-03-01T09:14:42.277Z,7.20
2023-03-01T09:17:10.750Z,7.30
2023-03-01T09:19:39.181Z,7.30
2023-03-01T09:22:07.467Z,7.30
2023-03-01T09:24:35.657Z,7.30
2023-03-01T09:27:03.952Z,7.40
2023-03-01T09:29:32.151Z,7.40
2023-03-01T09:32:01.787Z,7.40
2023-03-01T09:34:30.459Z,7.50
2023-03-01T09:37:03.366Z,7.50
2023-03-01T09:39:33.004Z,7.50
2023-03-01T09:42:03.846Z,7.50
2023-03-01T09:44:38.384Z,7.50
2023-03-01T09:47:14.657Z,7.60
2023-03-01T09:49:49.609Z,7.60
2023-03-01T09:52:27.550Z,7.60
2023-03-01T09:55:00.398Z,7.50
2023-03-01T09:57:35.187Z,7.50
2023-03-01T10:00:28.349Z,7.50
2023-03-01T10:03:03.787Z,7.50
2023-03-01T10:05:43.669Z,7.50
2023-03-01T10:08:32.037Z,7.60
2023-03-01T10:11:01.132Z,7.70
2023-03-01T10:13:49.775Z,7.70
2023-03-01T10:16:22.940Z,7.70
2023-03-01T10:18:58.049Z,7.70
2023-03-01T10:21:28.834Z,7.70
2023-03-01T10:23:59.116Z,7.70
2023-03-01T10:26:42.130Z,7.80
2023-03-01T10:29:12.074Z,7.90
2023-03-01T10:31:44.097Z,7.80
2023-03-01T10:34:19.837Z,7.90
2023-03-01T10:36:52.141Z,8.00
2023-03-01T10:39:23.255Z,8.00
2023-03-01T10:41:58.516Z,8.10
2023-03-01T10:44:43.102Z,8.10
2023-03-01T10:47:24.459Z,8.20
2023-03-01T10:50:00.279Z,8.20
2023-03-01T10:52:32.545Z,8.20
2023-03-01T10:55:03.485Z,8.20
2023-03-01T10:57:42.038Z,8.20
2023-03-01T11:00:28.908Z,8.20
2023-03-01T11:03:14.467Z,8.20
2023-03-01T11:06:03.035Z,8.20
2023-03-01T11:08:39.640Z,8.20
2023-03-01T11:11:27.905Z,8.20
2023-03-01T11:13:58.740Z,8.20
2023-03-01T11:16:30.039Z,8.30
2023-03-01T11:18:59.975Z,8.20
2023-03-01T11:21:33.329Z,8.10
2023-03-01T11:24:03.666Z,8.10
2023-03-01T11:26:36.377Z,8.20
2023-03-01T11:29:08.350Z,8.20
2023-03-01T11:31:40.472Z,8.30
2023-03-01T11:34:16.009Z,8.30
2023-03-01T11:36:54.739Z,8.30
2023-03-01T11:39:30.470Z,8.30
2023-03-01T11:42:18.188Z,8.30
2023-03-01T11:44:50.757Z,8.40
2023-03-01T11:47:42.899Z,8.40
2023-03-01T11:50:28.792Z,8.40
2023-03-01T11:53:16.347Z,8.50
2023-03-01T11:56:03.660Z,8.50
2023-03-01T11:58:48.043Z,8.50
2023-03-01T12:01:27.837Z,8.50
2023-03-01T12:04:40.453Z,8.40
2023-03-01T12:07:16.656Z,8.50
2023-03-01T12:09:59.170Z,8.50
2023-03-01T12:12:39.835Z,8.60
2023-03-01T12:15:35.654Z,8.60
2023-03-01T12:18:22.799Z,8.60
2023-03-01T12:21:03.566Z,8.60
2023-03-01T12:24:02.287Z,8.60
2023-03-01T12:26:34.968Z,8.60
2023-03-01T12:29:20.736Z,8.70
2023-03-01T12:32:20.542Z,8.70
2023-03-01T12:35:13.719Z,8.70
2023-03-01T12:37:53.925Z,8.70
2023-03-01T12:40:45.500Z,8.70
2023-03-01T12:43:24.891Z,8.70
2023-03-01T12:46:09.119Z,8.70
2023-03-01T12:48:48.600Z,8.60
2023-03-01T12:51:21.345Z,8.60
2023-03-01T12:53:51.871Z,8.50
2023-03-01T12:56:23.610Z,8.50
2023-03-01T12:59:02.257Z,8.50
2023-03-01T13:01:39.570Z,8.40
2023-03-01T13:04:20.954Z,8.50
2023-03-01T13:07:00.395Z,8.50
2023-03-01T13:09:38.846Z,8.40
2023-03-01T13:12:46.738Z,8.40
2023-03-01T13:15:30.486Z,8.40
2023-03-01T13:18:00.527Z,8.40
2023-03-01T13:20:35.021Z,8.40
2023-03-01T13:23:07.541Z,8.40
2023-03-01T13:25:42.526Z,8.40
2023-03-01T13:28:43.037Z,8.40
2023-03-01T13:31:33.444Z,8.40
2023-03-01T13:34:02.543Z,8.30
2023-03-01T13:36:50.291Z,8.30
2023-03-01T13:39:34.569Z,8.20
2023-03-01T13:42:03.587Z,8.20
2023-03-01T13:44:36.880Z,8.20
2023-03-01T13:47:18.434Z,8.10
2023-03-01T13:49:51.626Z,8.10
2023-03-01T13:52:41.323Z,8.10
2023-03-01T13:55:20.815Z,8.10
2023-03-01T13:57:54.795Z,8.00
2023-03-01T14:00:35.211Z,7.90
2023-03-01T14:03:12.765Z,7.90
2023-03-01T14:05:42.064Z,7.90
2023-03-01T14:08:24.812Z,7.90
2023-03-01T14:11:05.214Z,7.90
2023-03-01T14:13:45.443Z,7.90
2023-03-01T14:16:27.679Z,7.80
2023-03-01T14:19:14.084Z,7.80
2023-03-01T14:21:42.496Z,7.80
2023-03-01T14:24:19.496Z,7.70
2023-03-01T14:26:47.708Z,7.70
2023-03-01T14:29:37.587Z,7.70
2023-03-01T14:32:20.916Z,7.70
2023-03-01T14:34:52.337Z,7.70
2023-03-01T14:37:23.497Z,7.70
2023-03-01T14:39:53.180Z,7.70
2023-03-01T14:42:22.725Z,7.70
2023-03-01T14:44:53.505Z,7.70
2023-03-01T14:47:29.332Z,7.60
2023-03-01T14:50:04.105Z,7.70
2023-03-01T14:52:37.094Z,7.60
2023-03-01T14:55:09.543Z,7.60
2023-03-01T14:57:37.778Z,7.60
2023-03-01T15:00:09.476Z,7.60
2023-03-01T15:02:40.493Z,7.60
2023-03-01T15:05:11.310Z,7.60
2023-03-01T15:07:50.146Z,7.60
2023-03-01T15:10:23.710Z,7.60
2023-03-01T15:12:53.861Z,7.60
2023-03-01T15:15:40.343Z,7.60
2023-03-01T15:18:18.787Z,7.60
2023-03-01T15:20:49.417Z,7.60
2023-03-01T15:23:23.753Z,7.60
2023-03-01T15:25:58.661Z,7.50
2023-03-01T15:28:30.265Z,7.50
2023-03-01T15:31:02.793Z,7.50
2023-03-01T15:33:37.766Z,7.50
2023-03-01T15:36:38.394Z,7.50
2023-03-01T15:39:07.961Z,7.50
2023-03-01T15:41:48.680Z,7.50
2023-03-01T15:44:18.472Z,7.50
2023-03-01T15:46:50.284Z,7.50
2023-03-01T15:49:32.704Z,7.40
2023-03-01T15:52:02.198Z,7.40
2023-03-01T15:54:30.643Z,7.40
2023-03-01T15:56:58.789Z,7.40
2023-03-01T15:59:26.903Z,7.30
2023-03-01T16:01:55.017Z,7.30
2023-03-01T16:04:24.167Z,7.30
2023-03-01T16:06:56.168Z,7.30
2023-03-01T16:09:27.117Z,7.30
2023-03-01T16:11:56.113Z,7.30
2023-03-01T16:14:24.650Z,7.30
2023-03-01T16:16:53.015Z,7.20
2023-03-01T16:19:21.320Z,7.20
2023-03-01T16:21:50.898Z,7.20
2023-03-01T16:24:19.058Z,7.20
2023-03-01T16:26:48.663Z,7.20
2023-03-01T16:29:17.295Z,7.20
2023-03-01T16:31:45.561Z,7.20
2023-03-01T16:34:13.870Z,7.20
2023-03-01T16:36:42.852Z,7.20
2023-03-01T16:39:11.598Z,7.10
2023-03-01T16:41:39.824Z,7.10
2023-03-01T16:44:09.456Z,7.10
2023-03-01T16:46:37.747Z,7.10
2023-03-01T16:49:05.964Z,7.10
2023-03-01T16:51:35.834Z,7.00
2023-03-01T16:54:05.659Z,7.00
2023-03-01T16:56:35.696Z,7.00
2023-03-01T16:59:05.782Z,7.00
2023-03-01T17:01:42.442Z,6.90
2023-03-01T17:04:13.128Z,6.90
2023-03-01T17:06:41.388Z,6.80
2023-03-01T17:09:10.413Z,6.80
2023-03-01T17:11:38.622Z,6.80
2023-03-01T17:14:06.806Z,6.80
2023-03-01T17:16:36.848Z,6.70
2023-03-01T17:19:05.185Z,6.60
2023-03-01T17:21:33.716Z,6.60
2023-03-01T17:24:02.372Z,6.60
2023-03-01T17:26:31.091Z,6.60
2023-03-01T17:28:59.406Z,6.70
2023-03-01T17:31:27.657Z,6.60
2023-03-01T17:33:59.288Z,6.60
2023-03-01T17:36:28.733Z,6.60
2023-03-01T17:38:56.910Z,6.60
2023-03-01T17:41:25.156Z,6.60
2023-03-01T17:43:53.342Z,6.50
2023-03-01T17:46:22.158Z,6.50
2023-03-01T17:48:50.990Z,6.50
2023-03-01T17:51:20.525Z,6.50
2023-03-01T17:53:48.727Z,6.50
2023-03-01T17:56:17.315Z,6.50
2023-03-01T17:58:46.833Z,6.40
2023-03-01T18:01:17.405Z,6.30
2023-03-01T18:03:47.588Z,6.30
2023-03-01T18:06:17.845Z,6.30
2023-03-01T18:08:48.799Z,6.30
2023-03-01T18:11:16.956Z,6.30
2023-03-01T18:13:45.664Z,6.30
2023-03-01T18:16:15.677Z,6.20
2023-03-01T18:18:46.191Z,6.20
2023-03-01T18:21:15.064Z,6.10
2023-03-01T18:23:43.625Z,6.10
2023-03-01T18:26:15.797Z,6.10
2023-03-01T18:28:47.693Z,6.10
2023-03-01T18:31:18.492Z,6.10
2023-03-01T18:33:47.431Z,6.10
2023-03-01T18:36:21.481Z,6.10
2023-03-01T18:38:49.891Z,6.10
2023-03-01T18:41:19.539Z,6.10
2023-03-01T18:43:47.773Z,6.00
2023-03-01T18:46:16.118Z,5.90
2023-03-01T18:48:44.869Z,5.70
2023-03-01T18:51:15.374Z,5.50
2023-03-01T18:53:43.614Z,5.60
2023-03-01T18:56:12.662Z,5.50
2023-03-01T18:58:43.645Z,5.50
2023-03-01T19:01:16.102Z,5.50
2023-03-01T19:03:44.249Z,5.50
2023-03-01T19:06:13.169Z,5.40
2023-03-01T19:08:42.266Z,5.30
2023-03-01T19:11:11.116Z,5.30
2023-03-01T19:13:41.890Z,5.30
2023-03-01T19:16:12.081Z,5.30
2023-03-01T19:18:42.764Z,5.30
2023-03-01T19:21:12.371Z,5.30
2023-03-01T19:23:40.639Z,5.20
2023-03-01T19:26:11.406Z,5.10
2023-03-01T19:28:41.867Z,5.10
2023-03-01T19:31:12.267Z,4.90
2023-03-01T19:33:41.317Z,4.80
2023-03-01T19:36:11.364Z,4.70
2023-03-01T19:38:40.312Z,4.70
2023-03-01T19:41:10.812Z,4.60
2023-03-01T19:43:39.310Z,4.60
2023-03-01T19:46:09.264Z,4.60
2023-03-01T19:48:40.335Z,4.60
2023-03-01T19:51:09.121Z,4.60
2023-03-01T19:53:38.884Z,4.60
2023-03-01T19:56:08.817Z,4.50
2023-03-01T19:58:37.424Z,4.50
2023-03-01T20:01:06.131Z,4.40
2023-03-01T20:03:36.972Z,4.50
2023-03-01T20:06:11.095Z,4.50
2023-03-01T20:08:39.553Z,4.60
2023-03-01T20:11:10.604Z,4.60
2023-03-01T20:13:39.266Z,4.70
2023-03-01T20:16:08.671Z,4.70
2023-03-01T20:18:38.328Z,4.80
2023-03-01T20:21:18.128Z,4.80
2023-03-01T20:23:51.645Z,4.90
2023-03-01T20:26:20.515Z,4.90
2023-03-01T20:28:49.739Z,4.90
2023-03-01T20:31:19.319Z,4.90
2023-03-01T20:33:49.304Z,4.90
2023-03-01T20:36:17.531Z,5.00
2023-03-01T20:38:45.744Z,5.00
2023-03-01T20:41:14.623Z,5.00
2023-03-01T20:43:43.530Z,5.00
2023-03-01T20:46:15.028Z,5.00
2023-03-01T20:48:44.028Z,5.00
2023-03-01T20:51:14.392Z,5.00
2023-03-01T20:53:42.891Z,5.00
2023-03-01T20:56:17.650Z,5.00
2023-03-01T20:58:45.969Z,5.00
2023-03-01T21:01:18.320Z,5.00
2023-03-01T21:03:46.693Z,5.00
2023-03-01T21:06:16.271Z,5.00
2023-03-01T21:08:44.436Z,5.00
2023-03-01T21:11:12.614Z,5.00
2023-03-01T21:13:41.743Z,5.00
2023-03-01T21:16:13.801Z,5.00
2023-03-01T21:18:42.919Z,5.00
2023-03-01T21:21:12.770Z,5.00
2023-03-01T21:23:43.549Z,5.00
2023-03-01T21:26:13.340Z,5.00
2023-03-01T21:28:42.849Z,5.00
2023-03-01T21:31:12.714Z,5.00
2023-03-01T21:33:44.681Z,5.00
2023-03-01T21:36:13.436Z,5.10
2023-03-01T21:38:44.718Z,5.00
2023-03-01T21:41:15.269Z,5.00
2023-03-01T21:43:45.727Z,5.00
2023-03-01T21:46:16.776Z,5.00
2023-03-01T21:48:46.482Z,5.00
2023-03-01T21:51:16.411Z,5.00
2023-03-01T21:53:46.625Z,5.10
2023-03-01T21:56:17.533Z,5.10
2023-03-01T21:58:46.196Z,5.10
2023-03-01T22:01:16.365Z,5.10
2023-03-01T22:03:46.445Z,5.10
2023-03-01T22:06:19.617Z,5.00
2023-03-01T22:09:01.407Z,4.90
2023-03-01T22:11:29.676Z,4.90
2023-03-01T22:13:58.365Z,4.80
2023-03-01T22:16:28.518Z,4.80
2023-03-01T22:18:57.032Z,4.80
2023-03-01T22:21:25.936Z,4.80
2023-03-01T22:23:55.266Z,4.90
2023-03-01T22:26:27.229Z,4.90
2023-03-01T22:28:57.070Z,4.90
2023-03-01T22:31:25.936Z,4.90
2023-03-01T22:33:55.374Z,4.90
2023-03-01T22:36:23.900Z,5.00
2023-03-01T22:38:58.602Z,5.00
2023-03-01T22:41:29.294Z,5.00
2023-03-01T22:43:57.601Z,5.00
2023-03-01T22:46:26.750Z,5.00
2023-03-01T22:48:55.088Z,4.90
2023-03-01T22:51:25.074Z,4.90
2023-03-01T22:53:53.625Z,4.90
2023-03-01T22:56:24.601Z,4.90
2023-03-01T22:58:54.425Z,4.90
2023-03-01T23:01:24.161Z,5.00
2023-03-01T23:03:53.085Z,5.00
2023-03-01T23:06:22.632Z,5.00
2023-03-01T23:08:51.918Z,5.00
2023-03-01T23:11:21.801Z,5.00
2023-03-01T23:13:50.318Z,5.00
2023-03-01T23:16:20.659Z,5.00
2023-03-01T23:18:48.844Z,5.00
2023-03-01T23:21:18.803Z,5.00
2023-03-01T23:23:48.516Z,5.10
2023-03-01T23:26:17.750Z,5.10
2023-03-01T23:28:47.372Z,5.10
2023-03-01T23:31:16.725Z,5.00
2023-03-01T23:33:47.689Z,5.00
2023-03-01T23:36:17.573Z,5.10
2023-03-01T23:38:46.161Z,5.10
2023-03-01T23:41:15.741Z,5.10
2023-03-01T23:43:45.966Z,5.00
2023-03-01T23:46:14.440Z,5.10
2023-03-01T23:48:42.745Z,5.10
2023-03-01T23:51:12.935Z,5.10
2023-03-01T23:53:44.208Z,5.10
2023-03-01T23:56:14.614Z,5.10
2023-03-01T23:58:44.343Z,5.10
